»·PEaware :: N680CP KSNA-KAPV

N680CP :: KSNA-KAPV

FLIGHT INFORMATION

Flight Status: Arrived
Operator: Privately registered:
United States
More flights under this callsign
Pilot: Anonymous 20763 (20763)
Aircraft: CESSNA 172 SKYHAWK
(C172)
More flights by this aircraft type
Origin: KSNA John Wayne-Orange Co
United States
Destination: KAPV Apple Valley
United States
More flights between these airports :: More routes between these airports
Route: +PDZ
File this flight plan on PilotEdge
Remarks:
Altitude:
(Current/Filed)
7,500ft
Speed:
(Current/Filed)
115kts
Departed: 11-Oct-18 06:34 PM
Arrived: 11-Oct-18 07:17 PM
Distance/Time
Traveled:
64nm/0:43
Distance/Time
To Go:
Arrived

Flight Plot

Page will automatically refresh every two minutes.

Flight plan parsing failed; only flown route is shown


Map Options




Map Legend


Flown Route
Filed Route
Departure Airport
Arrival Airport
Navaid (VOR, NDB)
Fix

Horizontal Profiles

Position Reports

Time Latitude Longitude Heading Altitude Ground
Speed
11-Oct-18 18:15 33.666968 -117.872393 43 60ft 0kts
11-Oct-18 18:16 33.666968 -117.872393 43 60ft 0kts
11-Oct-18 18:17 33.666968 -117.872393 43 60ft 0kts
11-Oct-18 18:18 33.666968 -117.872393 43 60ft 0kts
11-Oct-18 18:19 33.666968 -117.872393 43 60ft 0kts
11-Oct-18 18:20 33.666968 -117.872393 43 60ft 0kts
11-Oct-18 18:21 33.666968 -117.872393 43 60ft 0kts
11-Oct-18 18:22 33.666968 -117.872393 43 60ft 0kts
11-Oct-18 18:23 33.666968 -117.872393 43 60ft 0kts
11-Oct-18 18:24 33.666968 -117.872393 43 60ft 0kts
11-Oct-18 18:25 33.666968 -117.872393 43 60ft 0kts
11-Oct-18 18:26 33.666968 -117.872393 43 60ft 0kts
11-Oct-18 18:27 33.667019 -117.872385 334 60ft 3kts
11-Oct-18 18:28 33.668942 -117.871115 39 60ft 12kts
11-Oct-18 18:29 33.672564 -117.867834 26 60ft 6kts
11-Oct-18 18:30 33.674967 -117.866552 27 60ft 15kts
11-Oct-18 18:31 33.679555 -117.863630 30 60ft 6kts
11-Oct-18 18:32 33.679901 -117.863514 328 60ft 1kts
11-Oct-18 18:33 33.679940 -117.863566 298 60ft 0kts
11-Oct-18 18:34 33.679940 -117.863566 298 60ft 0kts
11-Oct-18 18:35 33.680045 -117.864215 219 60ft 11kts
11-Oct-18 18:36 33.665101 -117.873726 198 532ft 79kts
11-Oct-18 18:37 33.657990 -117.850873 91 1330ft 88kts
11-Oct-18 18:38 33.656942 -117.819941 92 2036ft 96kts
11-Oct-18 18:39 33.655746 -117.788195 92 2776ft 92kts
11-Oct-18 18:40 33.664889 -117.757439 42 2995ft 125kts
11-Oct-18 18:41 33.690071 -117.728144 42 3295ft 113kts
11-Oct-18 18:42 33.709917 -117.704874 41 4078ft 90kts
11-Oct-18 18:43 33.726679 -117.685288 41 4774ft 85kts
11-Oct-18 18:44 33.743994 -117.665396 41 5375ft 87kts
11-Oct-18 18:45 33.764612 -117.642428 41 6071ft 85kts
11-Oct-18 18:46 33.780302 -117.628600 30 6568ft 82kts
11-Oct-18 18:47 33.799204 -117.614953 31 7157ft 76kts
11-Oct-18 18:48 33.818571 -117.601020 31 7514ft 96kts
11-Oct-18 18:49 33.845348 -117.581536 29 7505ft 121kts
11-Oct-18 18:50 33.873980 -117.561951 30 7504ft 115kts
11-Oct-18 18:51 33.900836 -117.543622 30 7504ft 110kts
11-Oct-18 18:52 33.928527 -117.524702 30 7503ft 114kts
11-Oct-18 18:53 33.956595 -117.505949 21 7505ft 117kts
11-Oct-18 18:54 33.986769 -117.489899 23 7505ft 120kts
11-Oct-18 18:55 34.017331 -117.473428 23 7505ft 121kts
11-Oct-18 18:56 34.048149 -117.457011 23 7505ft 121kts
11-Oct-18 18:57 34.078998 -117.440718 23 7505ft 121kts
11-Oct-18 18:58 34.103772 -117.427653 23 7505ft 121kts
11-Oct-18 18:59 34.134523 -117.411332 23 7505ft 120kts
11-Oct-18 19:00 34.165070 -117.395007 23 7506ft 120kts
11-Oct-18 19:01 34.195534 -117.378623 24 7505ft 120kts
11-Oct-18 19:02 34.225855 -117.362213 24 7504ft 119kts
11-Oct-18 19:03 34.256043 -117.345751 24 7507ft 119kts
11-Oct-18 19:04 34.286081 -117.329034 24 7526ft 118kts
11-Oct-18 19:05 34.315373 -117.313078 25 7535ft 111kts
11-Oct-18 19:06 34.343778 -117.298058 25 7479ft 114kts
11-Oct-18 19:07 34.372335 -117.282884 25 7480ft 111kts
11-Oct-18 19:08 34.400734 -117.267713 25 7485ft 111kts
11-Oct-18 19:09 34.428744 -117.252627 25 7396ft 113kts
11-Oct-18 19:10 34.458364 -117.236308 25 6700ft 119kts
11-Oct-18 19:11 34.488561 -117.219264 25 5999ft 120kts
11-Oct-18 19:12 34.518602 -117.201961 26 5299ft 119kts
11-Oct-18 19:13 34.548917 -117.184182 26 4476ft 123kts
11-Oct-18 19:14 34.577763 -117.167023 26 3990ft 103kts
11-Oct-18 19:15 34.601076 -117.168496 292 3990ft 101kts
11-Oct-18 19:16 34.592440 -117.197780 203 3993ft 103kts
11-Oct-18 19:17 34.566702 -117.208167 197 3986ft 82kts
11-Oct-18 19:18 34.563352 -117.190542 13 3487ft 86kts
11-Oct-18 19:19 34.578943 -117.186285 329 3066ft 13kts
11-Oct-18 19:20 34.579169 -117.186478 298 3066ft 0kts
11-Oct-18 19:21 34.579169 -117.186478 298 3066ft 0kts
11-Oct-18 19:22 34.579169 -117.186478 298 3066ft 0kts
11-Oct-18 19:23 34.579169 -117.186478 298 3066ft 0kts
11-Oct-18 19:24 34.579169 -117.186478 298 3066ft 0kts
11-Oct-18 19:25 34.579169 -117.186478 298 3066ft 0kts
11-Oct-18 19:26 34.579169 -117.186478 298 3066ft 0kts
11-Oct-18 19:27 34.580751 -117.186984 270 3066ft 7kts
11-Oct-18 19:28 34.580628 -117.187179 176 3066ft 0kts
11-Oct-18 19:29 34.580628 -117.187179 176 3066ft 0kts
11-Oct-18 19:30 34.580628 -117.187179 176 3066ft 0kts
11-Oct-18 19:31 34.580628 -117.187179 176 3066ft 0kts
11-Oct-18 19:32 34.580628 -117.187179 176 3066ft 0kts
11-Oct-18 19:33 34.580628 -117.187179 176 3066ft 0kts

Navigation Log

Ident Type
Flight plan parsing failed, navigation log unavailable